Terminal Aerodrome Forecast
Issued by NWS Cleveland, OH

Home | Current Version | Previous Version | Graphics & Text | Print | Product List | Glossary Off
Versions: 1 2 3 4 5 6 7 8 9 10 11 12 13 14 15 16 17 18 19 20 21 22 23 24 25 26

000
FTUS41 KCLE 271721
TAFERI
TAF
KERI 271721Z 2718/2818 25012KT P6SM OVC030
     FM272000 24012KT P6SM BKN016 OVC022
     FM272300 VRB03KT P6SM BKN025 OVC050
     FM280800 10005KT 6SM -RA OVC015
     FM281000 07005KT 3SM -RA BR OVC008=

USA.gov is the U.S. government's official web portal to all federal, state and local government web resources and services.